Bowen, Argentina
Current Conditions -  °F | °C
As of 10:00 AM on Friday 28 Nov 2014 (Local Time) from SAME Reporting Station
Clear Clear  
Wind Chill: 77°   Ceiling: Unl
Heat Index: 77°   Visibility: 6mi
Dew Point: 28°   Wind: 14mph
Humidity: 17%   Direction: 160°SSE
Pressure: 29.88"   Gusts: NA
Location:  35°S, 67.52°W
Report Text: SAME 281300Z 16012KT CAVOK 25/M02 Q1012
Loading
Personal Weather Stations






























Interactive Weather Map New forecast layout! Learn more

10-Day Weather Forecast

Advertisements
Track Severe Weather on mobile